createdAt,value
2019-03-29T00:02:19.142Z,57.15
2019-03-29T00:04:51.324Z,57.04
2019-03-29T00:07:23.177Z,56.80
2019-03-29T00:09:55.011Z,57.13
2019-03-29T00:12:26.900Z,57.00
2019-03-29T00:14:58.762Z,57.05
2019-03-29T00:17:30.625Z,57.42
2019-03-29T00:20:06.031Z,57.48
2019-03-29T00:22:36.461Z,57.72
2019-03-29T00:25:09.685Z,57.95
2019-03-29T00:27:41.900Z,58.05
2019-03-29T00:30:14.343Z,57.99
2019-03-29T00:32:46.899Z,58.28
2019-03-29T00:35:18.705Z,58.30
2019-03-29T00:37:53.663Z,58.38
2019-03-29T00:40:24.230Z,59.02
2019-03-29T00:42:56.032Z,59.31
2019-03-29T00:45:28.913Z,59.31
2019-03-29T00:48:00.960Z,59.39
2019-03-29T00:50:33.038Z,59.57
2019-03-29T00:53:04.914Z,59.20
2019-03-29T00:55:37.231Z,59.14
2019-03-29T00:58:09.383Z,58.99
2019-03-29T01:00:41.643Z,59.91
2019-03-29T01:03:13.447Z,60.61
2019-03-29T01:05:46.305Z,60.76
2019-03-29T01:08:19.044Z,60.86
2019-03-29T01:10:51.131Z,60.65
2019-03-29T01:13:23.215Z,60.79
2019-03-29T01:15:55.368Z,61.07
2019-03-29T01:18:27.435Z,60.97
2019-03-29T01:20:59.600Z,60.69
2019-03-29T01:23:31.432Z,60.92
2019-03-29T01:26:05.026Z,61.22
2019-03-29T01:28:36.832Z,60.80
2019-03-29T01:31:08.616Z,60.74
2019-03-29T01:33:40.920Z,61.24
2019-03-29T01:36:13.015Z,61.32
2019-03-29T01:38:45.184Z,61.66
2019-03-29T01:41:17.407Z,61.55
2019-03-29T01:43:49.518Z,61.12
2019-03-29T01:46:21.582Z,61.20
2019-03-29T01:48:54.433Z,61.69
2019-03-29T01:51:27.226Z,61.34
2019-03-29T01:54:00.108Z,61.39
2019-03-29T01:56:32.294Z,61.37
2019-03-29T01:59:05.069Z,62.04
2019-03-29T02:01:36.891Z,61.81
2019-03-29T02:04:08.690Z,61.94
2019-03-29T02:06:40.511Z,61.65
2019-03-29T02:09:13.396Z,61.66
2019-03-29T02:11:45.185Z,61.91
2019-03-29T02:14:17.862Z,61.63
2019-03-29T02:16:50.035Z,62.09
2019-03-29T02:19:21.837Z,61.83
2019-03-29T02:21:53.653Z,62.38
2019-03-29T02:24:25.507Z,62.13
2019-03-29T02:26:57.947Z,62.06
2019-03-29T02:29:30.019Z,61.99
2019-03-29T02:32:02.085Z,61.82
2019-03-29T02:34:35.152Z,61.94
2019-03-29T02:37:07.514Z,61.70
2019-03-29T02:39:39.595Z,61.97
2019-03-29T02:42:11.924Z,62.20
2019-03-29T02:44:43.846Z,62.58
2019-03-29T02:47:15.699Z,62.16
2019-03-29T02:49:47.518Z,62.02
2019-03-29T02:52:19.653Z,62.52
2019-03-29T02:54:51.497Z,62.74
2019-03-29T02:57:23.282Z,62.51
2019-03-29T02:59:55.166Z,63.00
2019-03-29T03:02:27.343Z,62.29
2019-03-29T03:04:59.308Z,62.34
2019-03-29T03:07:31.396Z,62.10
2019-03-29T03:10:03.397Z,62.24
2019-03-29T03:12:35.821Z,62.62
2019-03-29T03:15:09.311Z,62.49
2019-03-29T03:17:41.579Z,62.30
2019-03-29T03:20:15.952Z,61.97
2019-03-29T03:22:48.311Z,61.96
2019-03-29T03:25:20.164Z,61.90
2019-03-29T03:27:52.282Z,61.85
2019-03-29T03:30:24.295Z,61.72
2019-03-29T03:32:56.277Z,61.77
2019-03-29T03:35:28.033Z,61.82
2019-03-29T03:38:00.502Z,61.48
2019-03-29T03:40:32.604Z,61.04
2019-03-29T03:43:05.783Z,61.48
2019-03-29T03:45:37.608Z,61.69
2019-03-29T03:48:09.424Z,61.69
2019-03-29T03:50:45.697Z,61.58
2019-03-29T03:53:17.572Z,61.55
2019-03-29T03:55:50.005Z,61.27
2019-03-29T03:58:23.565Z,61.76
2019-03-29T04:00:59.451Z,61.81
2019-03-29T04:03:31.763Z,61.69
2019-03-29T04:06:03.633Z,61.35
2019-03-29T04:08:35.429Z,61.36
2019-03-29T04:11:07.203Z,61.53
2019-03-29T04:13:39.373Z,61.29
2019-03-29T04:16:11.511Z,61.16
2019-03-29T04:18:43.327Z,61.30
2019-03-29T04:21:15.193Z,61.70
2019-03-29T04:23:47.066Z,61.66
2019-03-29T04:26:18.869Z,61.78
2019-03-29T04:29:04.045Z,62.53
2019-03-29T04:31:25.071Z,62.13
2019-03-29T04:33:57.408Z,62.29
2019-03-29T04:36:29.536Z,62.36
2019-03-29T04:39:01.717Z,62.33
2019-03-29T04:41:35.642Z,62.56
2019-03-29T04:44:07.905Z,62.38
2019-03-29T04:46:39.724Z,62.10
2019-03-29T04:49:11.629Z,62.54
2019-03-29T04:51:43.794Z,62.08
2019-03-29T04:54:15.609Z,62.14
2019-03-29T04:56:47.470Z,63.41
2019-03-29T04:59:19.297Z,63.78
2019-03-29T05:01:51.773Z,63.83
2019-03-29T05:04:23.580Z,63.63
2019-03-29T05:06:55.666Z,63.50
2019-03-29T05:09:28.286Z,63.40
2019-03-29T05:12:00.194Z,62.80
2019-03-29T05:14:32.516Z,62.39
2019-03-29T05:17:05.617Z,62.20
2019-03-29T05:19:38.625Z,61.90
2019-03-29T05:22:10.399Z,61.91
2019-03-29T05:24:42.278Z,62.47
2019-03-29T05:27:14.419Z,62.34
2019-03-29T05:29:46.340Z,62.48
2019-03-29T05:32:18.146Z,62.73
2019-03-29T05:34:49.955Z,62.82
2019-03-29T05:37:22.446Z,63.08
2019-03-29T05:39:54.327Z,64.07
2019-03-29T05:42:26.370Z,64.14
2019-03-29T05:44:58.265Z,64.62
2019-03-29T05:47:30.382Z,64.65
2019-03-29T05:50:02.302Z,64.78
2019-03-29T05:52:34.137Z,64.78
2019-03-29T05:55:06.401Z,64.86
2019-03-29T05:57:39.294Z,64.92
2019-03-29T06:00:13.572Z,64.82
2019-03-29T06:02:45.437Z,64.70
2019-03-29T06:05:17.387Z,64.75
2019-03-29T06:07:49.558Z,64.96
2019-03-29T06:10:22.247Z,64.83
2019-03-29T06:12:54.637Z,64.72
2019-03-29T06:15:26.743Z,64.83
2019-03-29T06:17:58.658Z,65.24
2019-03-29T06:20:30.820Z,65.32
2019-03-29T06:23:02.947Z,65.68
2019-03-29T06:25:36.278Z,65.50
2019-03-29T06:28:08.779Z,65.33
2019-03-29T06:30:40.561Z,65.37
2019-03-29T06:33:12.454Z,65.49
2019-03-29T06:35:45.926Z,65.87
2019-03-29T06:38:18.200Z,65.48
2019-03-29T06:41:02.090Z,65.49
2019-03-29T06:43:24.425Z,65.67
2019-03-29T06:45:56.232Z,66.02
2019-03-29T06:48:28.024Z,65.93
2019-03-29T06:51:00.482Z,65.97
2019-03-29T06:53:32.295Z,66.13
2019-03-29T06:56:06.632Z,65.85
2019-03-29T06:58:38.572Z,65.73
2019-03-29T07:01:10.776Z,65.79
2019-03-29T07:03:42.832Z,66.00
2019-03-29T07:06:14.622Z,66.11
2019-03-29T07:08:46.927Z,65.53
2019-03-29T07:11:19.066Z,65.86
2019-03-29T07:13:57.387Z,65.56
2019-03-29T07:16:25.446Z,65.19
2019-03-29T07:18:57.251Z,65.15
2019-03-29T07:21:29.183Z,65.02
2019-03-29T07:24:01.342Z,64.63
2019-03-29T07:26:33.201Z,64.47
2019-03-29T07:29:07.070Z,64.03
2019-03-29T07:31:38.924Z,63.79
2019-03-29T07:34:11.792Z,63.77
2019-03-29T07:36:43.860Z,63.11
2019-03-29T07:39:15.657Z,62.88
2019-03-29T07:41:47.780Z,62.53
2019-03-29T07:44:19.569Z,62.37
2019-03-29T07:46:51.350Z,62.28
2019-03-29T07:49:23.740Z,61.81
2019-03-29T07:51:55.625Z,61.97
2019-03-29T07:54:27.830Z,61.74
2019-03-29T07:57:00.004Z,61.43
2019-03-29T07:59:32.947Z,60.82
2019-03-29T08:02:06.310Z,59.09
2019-03-29T08:04:38.255Z,57.66
2019-03-29T08:07:10.229Z,57.25
2019-03-29T08:09:42.025Z,56.54
2019-03-29T08:12:13.970Z,56.07
2019-03-29T08:14:45.915Z,55.99
2019-03-29T08:17:18.375Z,55.14
2019-03-29T08:20:05.708Z,54.15
2019-03-29T08:22:24.984Z,53.32
2019-03-29T08:24:59.248Z,53.42
2019-03-29T08:27:30.923Z,53.20
2019-03-29T08:30:02.903Z,51.71
2019-03-29T08:32:36.139Z,51.82
2019-03-29T08:35:08.510Z,52.07
2019-03-29T08:37:40.385Z,51.94
2019-03-29T08:40:13.346Z,52.22
2019-03-29T08:42:46.872Z,51.00
2019-03-29T08:45:22.288Z,50.93
2019-03-29T08:47:54.161Z,50.54
2019-03-29T08:50:26.075Z,50.99
2019-03-29T08:52:58.189Z,49.61
2019-03-29T08:55:30.059Z,49.08
2019-03-29T08:58:01.831Z,49.85
2019-03-29T09:00:35.363Z,49.29
2019-03-29T09:03:07.567Z,49.10
2019-03-29T09:05:40.403Z,49.52
2019-03-29T09:08:12.462Z,49.30
2019-03-29T09:10:44.335Z,49.63
2019-03-29T09:13:16.596Z,49.32
2019-03-29T09:15:48.493Z,48.32
2019-03-29T09:18:20.363Z,48.82
2019-03-29T09:20:52.427Z,48.07
2019-03-29T09:23:25.356Z,48.10
2019-03-29T09:25:57.192Z,49.14
2019-03-29T09:28:32.596Z,48.96
2019-03-29T09:31:02.862Z,49.22
2019-03-29T09:33:36.557Z,49.21
2019-03-29T09:36:08.655Z,47.43
2019-03-29T09:38:43.559Z,48.15
2019-03-29T09:41:14.481Z,47.50
2019-03-29T09:43:46.262Z,45.37
2019-03-29T09:46:18.047Z,45.66
2019-03-29T09:48:50.124Z,47.42
2019-03-29T09:51:22.190Z,47.15
2019-03-29T09:53:54.005Z,47.86
2019-03-29T09:56:37.888Z,48.28
2019-03-29T09:58:59.817Z,48.53
2019-03-29T10:01:31.918Z,45.28
2019-03-29T10:04:03.864Z,44.08
2019-03-29T10:06:36.837Z,43.19
2019-03-29T10:09:09.618Z,42.10
2019-03-29T10:11:41.412Z,42.69
2019-03-29T10:14:13.356Z,41.70
2019-03-29T10:16:45.482Z,41.81
2019-03-29T10:19:18.415Z,43.58
2019-03-29T10:21:50.271Z,43.88
2019-03-29T10:24:22.142Z,44.80
2019-03-29T10:26:53.931Z,44.19
2019-03-29T10:29:26.017Z,41.85
2019-03-29T10:31:57.807Z,41.70
2019-03-29T10:34:30.241Z,41.17
2019-03-29T10:37:02.205Z,41.52
2019-03-29T10:39:35.831Z,41.44
2019-03-29T10:42:08.425Z,40.84
2019-03-29T10:44:40.206Z,40.88
2019-03-29T10:47:12.067Z,41.17
2019-03-29T10:49:43.976Z,40.76
2019-03-29T10:52:16.027Z,41.05
2019-03-29T10:54:49.864Z,41.43
2019-03-29T10:57:21.431Z,43.43
2019-03-29T10:59:53.576Z,42.16
2019-03-29T11:02:25.636Z,41.90
2019-03-29T11:04:57.483Z,42.02
2019-03-29T11:07:29.277Z,42.35
2019-03-29T11:10:01.392Z,41.83
2019-03-29T11:12:33.486Z,42.25
2019-03-29T11:15:07.165Z,42.16
2019-03-29T11:17:39.270Z,42.20
2019-03-29T11:20:11.583Z,40.86
2019-03-29T11:22:43.359Z,38.68
2019-03-29T11:25:15.234Z,37.60
2019-03-29T11:27:47.032Z,37.17
2019-03-29T11:30:18.966Z,36.63
2019-03-29T11:32:52.058Z,37.00
2019-03-29T11:35:24.581Z,36.85
2019-03-29T11:37:56.553Z,36.69
2019-03-29T11:40:28.415Z,36.73
2019-03-29T11:43:00.612Z,37.04
2019-03-29T11:45:33.314Z,38.67
2019-03-29T11:48:08.773Z,37.18
2019-03-29T11:50:39.732Z,37.62
2019-03-29T11:53:11.874Z,38.51
2019-03-29T11:55:43.716Z,38.68
2019-03-29T11:58:16.562Z,38.63
2019-03-29T12:00:49.415Z,39.08
2019-03-29T12:03:21.202Z,37.38
2019-03-29T12:05:53.255Z,34.92
2019-03-29T12:08:25.409Z,35.07
2019-03-29T12:10:57.191Z,36.05
2019-03-29T12:13:40.438Z,35.71
2019-03-29T12:16:02.612Z,35.07
2019-03-29T12:18:35.062Z,36.18
2019-03-29T12:21:07.295Z,35.85
2019-03-29T12:23:39.478Z,35.83
2019-03-29T12:26:11.338Z,34.39
2019-03-29T12:28:43.267Z,34.23
2019-03-29T12:31:15.697Z,34.06
2019-03-29T12:33:47.779Z,34.90
2019-03-29T12:36:20.003Z,34.75
2019-03-29T12:38:51.786Z,34.18
2019-03-29T12:41:23.579Z,34.16
2019-03-29T12:43:56.235Z,33.64
2019-03-29T12:46:28.361Z,33.80
2019-03-29T12:49:00.344Z,33.79
2019-03-29T12:51:32.726Z,33.58
2019-03-29T12:54:04.693Z,33.86
2019-03-29T12:56:36.835Z,34.80
2019-03-29T12:59:08.824Z,35.06
2019-03-29T13:01:40.785Z,34.46
2019-03-29T13:04:12.974Z,34.48
2019-03-29T13:06:44.888Z,34.41
2019-03-29T13:09:17.090Z,34.30
2019-03-29T13:11:49.413Z,34.18
2019-03-29T13:14:21.280Z,34.66
2019-03-29T13:16:53.488Z,34.50
2019-03-29T13:19:25.543Z,34.26
2019-03-29T13:21:57.470Z,33.79
2019-03-29T13:24:29.558Z,34.65
2019-03-29T13:27:02.156Z,33.78
2019-03-29T13:29:34.615Z,33.72
2019-03-29T13:32:07.258Z,33.40
2019-03-29T13:34:39.129Z,33.92
2019-03-29T13:37:11.054Z,34.63
2019-03-29T13:39:42.927Z,34.87
2019-03-29T13:42:14.791Z,33.90
2019-03-29T13:44:46.948Z,33.83
2019-03-29T13:47:18.861Z,33.59
2019-03-29T13:49:51.081Z,34.14
2019-03-29T13:52:22.895Z,34.34
2019-03-29T13:54:54.809Z,33.98
2019-03-29T13:57:28.058Z,33.48
2019-03-29T14:00:00.408Z,33.74
2019-03-29T14:02:32.250Z,34.22
2019-03-29T14:05:04.329Z,33.73
2019-03-29T14:07:37.371Z,33.83
2019-03-29T14:10:10.285Z,33.79
2019-03-29T14:12:42.907Z,34.19
2019-03-29T14:15:15.956Z,34.47
2019-03-29T14:18:00.230Z,34.28
2019-03-29T14:20:35.299Z,34.48
2019-03-29T14:23:07.398Z,34.79
2019-03-29T14:25:39.601Z,34.67
2019-03-29T14:28:11.444Z,34.32
2019-03-29T14:30:43.518Z,33.94
2019-03-29T14:33:15.364Z,34.30
2019-03-29T14:35:47.481Z,33.73
2019-03-29T14:38:19.511Z,33.30
2019-03-29T14:40:51.544Z,33.41
2019-03-29T14:43:23.337Z,33.61
2019-03-29T14:45:55.168Z,33.40
2019-03-29T14:48:27.002Z,33.30
2019-03-29T14:50:58.798Z,33.23
2019-03-29T14:53:31.673Z,33.59
2019-03-29T14:56:03.561Z,33.41
2019-03-29T14:58:35.996Z,33.03
2019-03-29T15:01:07.859Z,32.46
2019-03-29T15:03:39.802Z,32.24
2019-03-29T15:06:12.070Z,31.97
2019-03-29T15:08:44.192Z,32.50
2019-03-29T15:11:22.108Z,33.44
2019-03-29T15:13:56.511Z,33.11
2019-03-29T15:16:28.972Z,33.15
2019-03-29T15:19:00.809Z,33.40
2019-03-29T15:21:32.623Z,33.16
2019-03-29T15:24:04.547Z,32.79
2019-03-29T15:26:37.601Z,33.61
2019-03-29T15:29:09.779Z,33.29
2019-03-29T15:31:41.642Z,33.31
2019-03-29T15:34:16.894Z,33.27
2019-03-29T15:36:48.793Z,33.80
2019-03-29T15:39:21.747Z,34.17
2019-03-29T15:41:53.942Z,34.05
2019-03-29T15:44:25.665Z,34.09
2019-03-29T15:46:57.538Z,34.02
2019-03-29T15:49:29.670Z,34.04
2019-03-29T15:52:01.530Z,34.25
2019-03-29T15:54:34.017Z,33.95
2019-03-29T15:57:05.826Z,34.50
2019-03-29T15:59:37.777Z,34.41
2019-03-29T16:02:09.578Z,34.17
2019-03-29T16:04:41.855Z,34.34
2019-03-29T16:07:13.679Z,34.61
2019-03-29T16:09:45.469Z,35.22
2019-03-29T16:12:17.338Z,34.77
2019-03-29T16:14:49.206Z,34.68
2019-03-29T16:17:21.063Z,34.81
2019-03-29T16:19:52.947Z,35.38
2019-03-29T16:22:24.814Z,35.57
2019-03-29T16:24:56.635Z,35.70
2019-03-29T16:27:29.777Z,35.72
2019-03-29T16:30:01.675Z,36.09
2019-03-29T16:32:34.512Z,36.26
2019-03-29T16:35:08.176Z,36.36
2019-03-29T16:37:39.972Z,36.51
2019-03-29T16:40:12.149Z,36.99
2019-03-29T16:42:44.275Z,36.76
2019-03-29T16:45:16.147Z,36.69
2019-03-29T16:47:48.437Z,36.88
2019-03-29T16:50:20.228Z,37.03
2019-03-29T16:52:52.075Z,37.46
2019-03-29T16:55:23.988Z,37.22
2019-03-29T16:57:55.877Z,37.17
2019-03-29T17:00:27.656Z,37.17
2019-03-29T17:02:59.524Z,37.10
2019-03-29T17:05:31.371Z,37.32
2019-03-29T17:08:05.317Z,37.34
2019-03-29T17:10:37.912Z,37.30
2019-03-29T17:13:10.181Z,37.18
2019-03-29T17:15:42.020Z,37.56
2019-03-29T17:18:14.217Z,37.40
2019-03-29T17:20:46.300Z,37.50
2019-03-29T17:23:18.098Z,38.14
2019-03-29T17:25:50.311Z,38.03
2019-03-29T17:28:22.125Z,38.25
2019-03-29T17:30:57.365Z,38.35
2019-03-29T17:33:30.568Z,38.90
2019-03-29T17:36:02.561Z,39.13
2019-03-29T17:38:34.340Z,38.83
2019-03-29T17:41:06.477Z,39.26
2019-03-29T17:43:38.375Z,39.57
2019-03-29T17:46:16.627Z,40.21
2019-03-29T17:48:43.907Z,40.98
2019-03-29T17:51:15.899Z,41.34
2019-03-29T17:53:48.110Z,41.67
2019-03-29T17:56:20.131Z,42.16
2019-03-29T17:58:52.216Z,42.15
2019-03-29T18:01:23.997Z,42.61
2019-03-29T18:03:55.786Z,42.58
2019-03-29T18:06:27.843Z,42.90
2019-03-29T18:08:59.969Z,42.96
2019-03-29T18:11:31.758Z,43.39
2019-03-29T18:17:00.671Z,43.58
2019-03-29T18:19:32.628Z,43.79
2019-03-29T18:22:04.439Z,43.72
2019-03-29T18:24:36.399Z,43.52
2019-03-29T18:27:08.232Z,43.63
2019-03-29T18:29:40.047Z,43.38
2019-03-29T18:32:12.279Z,43.69
2019-03-29T18:34:44.179Z,43.71
2019-03-29T18:37:16.894Z,43.87
2019-03-29T18:39:49.020Z,43.86
2019-03-29T18:42:20.816Z,44.14
2019-03-29T18:44:52.644Z,44.04
2019-03-29T18:47:24.510Z,43.79
2019-03-29T18:49:56.379Z,43.82
2019-03-29T18:52:28.261Z,43.91
2019-03-29T18:55:00.078Z,44.02
2019-03-29T18:57:31.882Z,44.35
2019-03-29T19:00:03.926Z,44.38
2019-03-29T19:02:37.832Z,44.59
2019-03-29T19:05:14.152Z,45.02
2019-03-29T19:07:46.329Z,45.14
2019-03-29T19:10:18.329Z,45.22
2019-03-29T19:12:50.303Z,45.23
2019-03-29T19:15:22.361Z,45.35
2019-03-29T19:17:54.230Z,45.70
2019-03-29T19:20:28.124Z,46.04
2019-03-29T19:22:59.887Z,46.28
2019-03-29T19:25:31.956Z,46.21
2019-03-29T19:28:03.934Z,46.29
2019-03-29T19:30:35.995Z,46.12
2019-03-29T19:33:07.817Z,46.41
2019-03-29T19:35:40.580Z,46.58
2019-03-29T19:38:12.386Z,46.26
2019-03-29T19:40:44.345Z,46.25
2019-03-29T19:43:16.776Z,46.08
2019-03-29T19:45:48.644Z,46.28
2019-03-29T19:48:20.461Z,46.21
2019-03-29T19:50:52.309Z,46.13
2019-03-29T19:53:24.188Z,46.22
2019-03-29T19:55:56.190Z,46.45
2019-03-29T19:58:28.330Z,46.65
2019-03-29T20:01:00.137Z,46.50
2019-03-29T20:03:32.602Z,46.35
2019-03-29T20:06:04.454Z,46.01
2019-03-29T20:08:36.246Z,46.05
2019-03-29T20:11:08.138Z,46.11
2019-03-29T20:13:39.983Z,45.95
2019-03-29T20:16:12.026Z,46.00
2019-03-29T20:18:44.002Z,46.19
2019-03-29T20:21:15.901Z,46.22
2019-03-29T20:23:48.245Z,46.36
2019-03-29T20:26:20.472Z,46.14
2019-03-29T20:28:52.356Z,46.22
2019-03-29T20:31:24.230Z,46.43
2019-03-29T20:33:58.080Z,46.37
2019-03-29T20:36:29.878Z,46.97
2019-03-29T20:39:01.693Z,46.99
2019-03-29T20:41:34.862Z,47.00
2019-03-29T20:44:07.885Z,47.03
2019-03-29T20:46:40.070Z,46.91
2019-03-29T20:49:11.886Z,46.85
2019-03-29T20:51:43.793Z,47.31
2019-03-29T20:54:15.669Z,47.29
2019-03-29T20:56:48.504Z,47.46
2019-03-29T20:59:20.806Z,47.65
2019-03-29T21:01:53.051Z,47.66
2019-03-29T21:04:25.032Z,47.97
2019-03-29T21:06:57.314Z,47.74
2019-03-29T21:09:29.369Z,47.63
2019-03-29T21:12:01.157Z,47.69
2019-03-29T21:14:33.308Z,47.96
2019-03-29T21:17:05.182Z,48.51
2019-03-29T21:19:37.198Z,48.67
2019-03-29T21:22:09.518Z,48.56
2019-03-29T21:24:41.408Z,48.78
2019-03-29T21:27:13.609Z,48.88
2019-03-29T21:29:45.943Z,48.74
2019-03-29T21:32:18.409Z,48.65
2019-03-29T21:34:50.283Z,49.06
2019-03-29T21:37:22.160Z,49.11
2019-03-29T21:39:53.936Z,49.14
2019-03-29T21:42:25.911Z,49.19
2019-03-29T21:44:57.688Z,49.53
2019-03-29T21:47:30.378Z,49.35
2019-03-29T21:50:02.332Z,49.19
2019-03-29T21:52:34.570Z,49.60
2019-03-29T21:55:07.303Z,49.92
2019-03-29T21:57:39.124Z,50.41
2019-03-29T22:00:12.740Z,50.24
2019-03-29T22:02:44.842Z,50.05
2019-03-29T22:05:17.058Z,50.06
2019-03-29T22:07:48.949Z,50.36
2019-03-29T22:10:20.950Z,50.51
2019-03-29T22:12:52.809Z,50.06
2019-03-29T22:15:24.672Z,50.34
2019-03-29T22:17:56.848Z,50.55
2019-03-29T22:20:28.823Z,50.41
2019-03-29T22:23:00.993Z,50.42
2019-03-29T22:25:34.047Z,50.89
2019-03-29T22:28:06.919Z,50.52
2019-03-29T22:30:38.770Z,50.83
2019-03-29T22:33:10.551Z,50.88
2019-03-29T22:35:42.361Z,51.01
2019-03-29T22:38:14.277Z,51.00
2019-03-29T22:40:46.052Z,51.23
2019-03-29T22:43:18.694Z,51.33
2019-03-29T22:45:50.482Z,51.12
2019-03-29T22:48:22.269Z,50.94
2019-03-29T22:50:54.114Z,51.11
2019-03-29T22:53:25.909Z,51.37
2019-03-29T22:55:58.105Z,51.99
2019-03-29T22:58:30.235Z,52.19
2019-03-29T23:01:03.982Z,52.08
2019-03-29T23:03:35.868Z,52.03
2019-03-29T23:06:07.745Z,52.26
2019-03-29T23:08:39.587Z,52.62
2019-03-29T23:11:11.396Z,52.43
2019-03-29T23:13:43.608Z,52.48
2019-03-29T23:16:15.563Z,52.56
2019-03-29T23:18:48.892Z,52.97
2019-03-29T23:21:21.125Z,53.02
2019-03-29T23:23:53.097Z,53.46
2019-03-29T23:26:25.130Z,53.55
2019-03-29T23:28:57.093Z,53.39
2019-03-29T23:31:28.876Z,53.77
2019-03-29T23:34:00.752Z,53.54
2019-03-29T23:36:32.633Z,53.67
2019-03-29T23:39:05.195Z,53.36
2019-03-29T23:41:37.154Z,53.39
2019-03-29T23:44:09.041Z,53.28
2019-03-29T23:46:41.848Z,53.23
2019-03-29T23:49:20.821Z,53.53
2019-03-29T23:51:47.222Z,53.49
2019-03-29T23:54:19.138Z,53.44
2019-03-29T23:56:50.921Z,53.39
2019-03-29T23:59:23.231Z,53.70
